createdAt,value
2018-06-30T00:00:08.700Z,17.50
2018-06-30T00:02:38.004Z,17.46
2018-06-30T00:05:07.447Z,17.44
2018-06-30T00:07:36.663Z,17.34
2018-06-30T00:10:06.358Z,17.36
2018-06-30T00:12:35.586Z,17.28
2018-06-30T00:15:05.156Z,17.21
2018-06-30T00:17:34.666Z,17.26
2018-06-30T00:20:03.987Z,17.23
2018-06-30T00:22:33.217Z,17.25
2018-06-30T00:25:02.461Z,17.18
2018-06-30T00:27:31.687Z,17.25
2018-06-30T00:30:01.231Z,17.58
2018-06-30T00:32:30.527Z,17.60
2018-06-30T00:34:59.715Z,17.59
2018-06-30T00:37:28.937Z,17.87
2018-06-30T00:39:58.127Z,18.18
2018-06-30T00:42:28.219Z,18.16
2018-06-30T00:44:57.399Z,18.32
2018-06-30T00:47:26.649Z,18.27
2018-06-30T00:49:55.855Z,18.28
2018-06-30T00:52:25.840Z,18.13
2018-06-30T00:54:55.331Z,18.12
2018-06-30T00:57:24.707Z,17.84
2018-06-30T00:59:53.876Z,17.62
2018-06-30T01:02:23.145Z,17.58
2018-06-30T01:04:52.847Z,17.47
2018-06-30T01:07:22.219Z,17.41
2018-06-30T01:09:51.663Z,17.48
2018-06-30T01:12:20.845Z,17.42
2018-06-30T01:14:50.059Z,17.39
2018-06-30T01:17:19.279Z,17.22
2018-06-30T01:19:48.487Z,17.20
2018-06-30T01:22:18.353Z,17.16
2018-06-30T01:24:47.967Z,17.09
2018-06-30T01:27:17.179Z,17.00
2018-06-30T01:29:46.527Z,16.77
2018-06-30T01:32:16.352Z,16.70
2018-06-30T01:34:45.627Z,16.71
2018-06-30T01:37:15.127Z,16.69
2018-06-30T01:39:44.323Z,16.63
2018-06-30T01:42:13.495Z,16.66
2018-06-30T01:44:43.275Z,16.48
2018-06-30T01:47:12.423Z,16.36
2018-06-30T01:49:42.071Z,16.33
2018-06-30T01:52:11.278Z,16.30
2018-06-30T01:54:40.715Z,16.23
2018-06-30T01:57:09.955Z,16.17
2018-06-30T01:59:39.727Z,16.08
2018-06-30T02:04:43.466Z,15.96
2018-06-30T02:07:12.775Z,15.91
2018-06-30T02:09:41.987Z,15.83
2018-06-30T02:12:11.469Z,15.87
2018-06-30T02:14:41.690Z,15.89
2018-06-30T02:17:10.895Z,15.85
2018-06-30T02:19:40.384Z,15.81
2018-06-30T02:22:09.607Z,15.73
2018-06-30T02:24:38.807Z,15.63
2018-06-30T02:27:08.099Z,15.71
2018-06-30T02:29:37.379Z,15.65
2018-06-30T02:32:06.579Z,15.59
2018-06-30T02:34:35.983Z,15.61
2018-06-30T02:37:05.187Z,15.49
2018-06-30T02:39:34.451Z,15.39
2018-06-30T02:42:03.679Z,15.39
2018-06-30T02:44:32.886Z,15.36
2018-06-30T02:47:03.759Z,15.35
2018-06-30T02:49:32.987Z,15.28
2018-06-30T02:52:02.459Z,15.28
2018-06-30T02:54:31.727Z,15.33
2018-06-30T02:57:01.895Z,15.35
2018-06-30T02:59:31.095Z,15.38
2018-06-30T03:02:00.387Z,15.37
2018-06-30T03:04:29.674Z,15.42
2018-06-30T03:06:58.890Z,15.43
2018-06-30T03:09:28.524Z,15.37
2018-06-30T03:11:57.688Z,15.38
2018-06-30T03:14:26.887Z,15.30
2018-06-30T03:16:57.723Z,15.37
2018-06-30T03:19:26.933Z,15.35
2018-06-30T03:21:56.145Z,15.32
2018-06-30T03:24:25.323Z,15.33
2018-06-30T03:26:54.551Z,15.24
2018-06-30T03:29:24.335Z,15.37
2018-06-30T03:31:53.600Z,15.26
2018-06-30T03:34:22.838Z,15.22
2018-06-30T03:36:52.084Z,15.28
2018-06-30T03:39:21.254Z,15.24
2018-06-30T03:41:50.500Z,15.28
2018-06-30T03:44:20.003Z,15.37
2018-06-30T03:46:49.199Z,15.32
2018-06-30T03:49:18.671Z,15.45
2018-06-30T03:51:48.023Z,15.45
2018-06-30T03:54:17.235Z,15.36
2018-06-30T03:56:46.512Z,15.33
2018-06-30T03:59:15.991Z,15.44
2018-06-30T04:01:45.347Z,15.53
2018-06-30T04:04:14.583Z,15.60
2018-06-30T04:06:43.756Z,15.47
2018-06-30T04:09:13.967Z,15.31
2018-06-30T04:11:43.171Z,15.33
2018-06-30T04:14:12.598Z,15.48
2018-06-30T04:16:41.808Z,15.56
2018-06-30T04:19:13.978Z,15.62
2018-06-30T04:21:46.380Z,15.73
2018-06-30T04:24:15.659Z,15.90
2018-06-30T04:26:45.169Z,15.97
2018-06-30T04:29:15.004Z,16.16
2018-06-30T04:31:44.183Z,16.28
2018-06-30T04:34:13.794Z,16.38
2018-06-30T04:36:42.979Z,16.51
2018-06-30T04:39:12.202Z,16.71
2018-06-30T04:41:41.775Z,16.95
2018-06-30T04:44:11.083Z,17.31
2018-06-30T04:46:40.275Z,17.70
2018-06-30T04:49:09.496Z,17.91
2018-06-30T04:51:38.710Z,18.15
2018-06-30T04:54:08.331Z,18.32
2018-06-30T04:56:37.577Z,18.49
2018-06-30T04:59:06.803Z,18.60
2018-06-30T05:01:36.283Z,18.68
2018-06-30T05:04:05.764Z,18.76
2018-06-30T05:06:34.963Z,18.85
2018-06-30T05:09:05.895Z,18.86
2018-06-30T05:11:35.115Z,18.86
2018-06-30T05:14:04.387Z,18.96
2018-06-30T05:16:33.595Z,19.03
2018-06-30T05:19:02.860Z,19.11
2018-06-30T05:21:32.039Z,19.14
2018-06-30T05:24:01.327Z,19.21
2018-06-30T05:26:30.484Z,19.27
2018-06-30T05:29:01.577Z,19.32
2018-06-30T05:31:30.807Z,19.32
2018-06-30T05:33:59.998Z,19.42
2018-06-30T05:36:29.882Z,19.44
2018-06-30T05:38:59.376Z,19.49
2018-06-30T05:41:28.935Z,19.66
2018-06-30T05:43:58.183Z,19.75
2018-06-30T05:46:27.391Z,19.81
2018-06-30T05:48:57.919Z,19.75
2018-06-30T05:51:27.190Z,19.78
2018-06-30T05:53:56.374Z,19.78
2018-06-30T05:56:25.890Z,19.94
2018-06-30T05:58:55.182Z,20.16
2018-06-30T06:01:24.911Z,20.70
2018-06-30T06:03:54.115Z,21.60
2018-06-30T06:06:23.307Z,22.02
2018-06-30T06:08:52.710Z,22.38
2018-06-30T06:11:21.939Z,22.88
2018-06-30T06:13:51.103Z,23.42
2018-06-30T06:16:20.885Z,23.34
2018-06-30T06:18:50.049Z,23.43
2018-06-30T06:21:19.488Z,23.70
2018-06-30T06:23:48.891Z,24.17
2018-06-30T06:26:18.163Z,24.32
2018-06-30T06:28:47.313Z,25.12
2018-06-30T06:31:16.511Z,24.55
2018-06-30T06:33:45.748Z,24.75
2018-06-30T06:36:14.999Z,25.37
2018-06-30T06:38:44.159Z,25.23
2018-06-30T06:41:13.334Z,25.85
2018-06-30T06:43:42.482Z,26.50
2018-06-30T06:46:11.652Z,26.48
2018-06-30T06:48:40.796Z,26.05
2018-06-30T06:51:10.393Z,26.46
2018-06-30T06:53:39.558Z,27.29
2018-06-30T06:56:08.731Z,26.96
2018-06-30T06:58:37.916Z,27.36
2018-06-30T07:01:07.218Z,27.72
2018-06-30T07:03:36.410Z,28.05
2018-06-30T07:06:05.721Z,28.49
2018-06-30T07:08:34.911Z,28.44
2018-06-30T07:11:04.769Z,28.56
2018-06-30T07:13:33.931Z,28.60
2018-06-30T07:16:03.426Z,29.75
2018-06-30T07:18:32.631Z,30.45
2018-06-30T07:21:01.823Z,29.90
2018-06-30T07:23:32.124Z,29.82
2018-06-30T07:26:01.291Z,30.21
2018-06-30T07:28:31.359Z,30.85
2018-06-30T07:31:00.531Z,29.84
2018-06-30T07:33:29.764Z,29.63
2018-06-30T07:35:58.930Z,30.07
2018-06-30T07:38:28.315Z,30.81
2018-06-30T07:40:57.818Z,31.04
2018-06-30T07:43:27.180Z,30.54
2018-06-30T07:45:56.451Z,31.15
2018-06-30T07:48:25.644Z,32.32
2018-06-30T07:50:54.855Z,31.40
2018-06-30T07:53:24.055Z,31.40
2018-06-30T07:55:53.478Z,32.18
2018-06-30T07:58:22.705Z,31.68
2018-06-30T08:00:51.879Z,31.50
2018-06-30T08:03:21.082Z,32.07
2018-06-30T08:05:51.383Z,33.05
2018-06-30T08:08:22.088Z,33.01
2018-06-30T08:10:51.264Z,33.80
2018-06-30T08:13:20.495Z,33.29
2018-06-30T08:15:49.655Z,33.56
2018-06-30T08:18:18.844Z,33.46
2018-06-30T08:20:48.088Z,33.73
2018-06-30T08:23:17.274Z,34.31
2018-06-30T08:25:46.487Z,33.52
2018-06-30T08:28:15.655Z,32.28
2018-06-30T08:30:45.470Z,32.75
2018-06-30T08:33:14.695Z,34.20
2018-06-30T08:35:44.013Z,34.23
2018-06-30T08:38:13.151Z,34.85
2018-06-30T08:40:42.344Z,34.62
2018-06-30T08:43:11.496Z,34.59
2018-06-30T08:45:40.707Z,35.06
2018-06-30T08:48:09.927Z,35.62
2018-06-30T08:50:39.111Z,34.38
2018-06-30T08:53:08.391Z,34.68
2018-06-30T08:55:37.691Z,35.32
2018-06-30T08:58:06.883Z,35.84
2018-06-30T09:00:36.048Z,36.17
2018-06-30T09:03:05.423Z,35.71
2018-06-30T09:05:34.955Z,37.03
2018-06-30T09:08:05.903Z,35.65
2018-06-30T09:10:35.126Z,36.70
2018-06-30T09:13:04.332Z,36.16
2018-06-30T09:15:33.535Z,36.61
2018-06-30T09:18:02.859Z,37.34
2018-06-30T09:20:32.115Z,36.64
2018-06-30T09:23:01.923Z,36.46
2018-06-30T09:25:31.159Z,37.32
2018-06-30T09:28:00.307Z,37.91
2018-06-30T09:30:29.545Z,37.96
2018-06-30T09:32:58.678Z,37.61
2018-06-30T09:35:27.907Z,39.05
2018-06-30T09:37:57.149Z,37.32
2018-06-30T09:40:26.363Z,37.77
2018-06-30T09:42:55.589Z,38.74
2018-06-30T09:45:25.439Z,39.14
2018-06-30T09:47:54.644Z,39.42
2018-06-30T09:50:23.824Z,39.11
2018-06-30T09:52:53.027Z,37.29
2018-06-30T09:55:22.247Z,37.35
2018-06-30T09:57:51.511Z,37.13
2018-06-30T10:00:26.628Z,37.09
2018-06-30T10:02:55.744Z,37.39
2018-06-30T10:05:25.166Z,37.95
2018-06-30T10:07:55.475Z,38.44
2018-06-30T10:10:24.747Z,36.77
2018-06-30T10:12:53.915Z,37.00
2018-06-30T10:15:23.240Z,38.64
2018-06-30T10:17:52.548Z,36.74
2018-06-30T10:20:21.707Z,37.12
2018-06-30T10:22:51.214Z,38.34
2018-06-30T10:25:20.423Z,38.95
2018-06-30T10:27:49.715Z,37.47
2018-06-30T10:30:18.882Z,38.28
2018-06-30T10:32:48.323Z,39.19
2018-06-30T10:35:17.759Z,38.09
2018-06-30T10:37:47.291Z,38.75
2018-06-30T10:40:16.481Z,39.15
2018-06-30T10:42:45.668Z,37.58
2018-06-30T10:45:14.962Z,38.77
2018-06-30T10:47:44.155Z,38.80
2018-06-30T10:50:13.315Z,39.51
2018-06-30T10:52:42.724Z,38.83
2018-06-30T10:55:11.930Z,38.79
2018-06-30T10:57:41.227Z,38.78
2018-06-30T11:00:10.631Z,39.67
2018-06-30T11:02:39.920Z,41.15
2018-06-30T11:05:10.040Z,39.71
2018-06-30T11:07:39.383Z,38.52
2018-06-30T11:10:09.303Z,39.91
2018-06-30T11:12:39.181Z,39.74
2018-06-30T11:15:08.324Z,38.87
2018-06-30T11:17:37.959Z,39.85
2018-06-30T11:20:07.300Z,40.45
2018-06-30T11:22:36.574Z,39.63
2018-06-30T11:25:06.366Z,39.20
2018-06-30T11:27:35.656Z,39.20
2018-06-30T11:30:05.371Z,39.41
2018-06-30T11:32:35.167Z,38.43
2018-06-30T11:35:04.703Z,38.64
2018-06-30T11:37:34.107Z,40.16
2018-06-30T11:40:03.399Z,40.37
2018-06-30T11:42:32.707Z,40.47
2018-06-30T11:45:01.981Z,40.26
2018-06-30T11:47:31.216Z,41.15
2018-06-30T11:50:00.375Z,40.48
2018-06-30T11:52:29.707Z,40.26
2018-06-30T11:54:58.968Z,40.48
2018-06-30T11:57:28.202Z,40.50
2018-06-30T11:59:57.432Z,39.99
2018-06-30T12:02:26.902Z,38.18
2018-06-30T12:04:56.206Z,39.16
2018-06-30T12:07:25.436Z,39.87
2018-06-30T12:09:55.423Z,40.25
2018-06-30T12:12:24.570Z,39.25
2018-06-30T12:14:53.831Z,40.25
2018-06-30T12:17:23.360Z,40.72
2018-06-30T12:19:52.876Z,41.41
2018-06-30T12:22:22.455Z,40.79
2018-06-30T12:24:52.730Z,40.04
2018-06-30T12:27:21.903Z,40.38
2018-06-30T12:29:51.103Z,40.34
2018-06-30T12:32:20.380Z,41.04
2018-06-30T12:34:49.506Z,40.71
2018-06-30T12:37:19.235Z,41.49
2018-06-30T12:39:48.462Z,40.08
2018-06-30T12:42:17.915Z,39.46
2018-06-30T12:44:47.107Z,39.34
2018-06-30T12:47:16.364Z,39.39
2018-06-30T12:49:45.919Z,39.20
2018-06-30T12:52:15.095Z,39.34
2018-06-30T12:54:44.250Z,40.06
2018-06-30T12:57:13.867Z,40.67
2018-06-30T12:59:43.028Z,40.33
2018-06-30T13:02:12.359Z,39.19
2018-06-30T13:04:41.776Z,38.96
2018-06-30T13:07:12.023Z,38.87
2018-06-30T13:09:41.208Z,39.42
2018-06-30T13:12:10.511Z,39.69
2018-06-30T13:14:39.887Z,38.36
2018-06-30T13:17:09.523Z,38.08
2018-06-30T13:19:38.838Z,39.15
2018-06-30T13:22:08.045Z,39.01
2018-06-30T13:24:37.837Z,38.75
2018-06-30T13:27:07.039Z,38.45
2018-06-30T13:29:36.216Z,38.76
2018-06-30T13:32:05.702Z,37.91
2018-06-30T13:34:35.003Z,38.15
2018-06-30T13:37:04.446Z,38.29
2018-06-30T13:39:34.163Z,38.70
2018-06-30T13:42:03.515Z,36.37
2018-06-30T13:44:33.077Z,37.97
2018-06-30T13:47:02.403Z,38.97
2018-06-30T13:49:31.884Z,38.78
2018-06-30T13:52:01.633Z,38.27
2018-06-30T13:54:30.946Z,38.13
2018-06-30T13:57:00.404Z,38.66
2018-06-30T13:59:29.710Z,38.71
2018-06-30T14:01:59.010Z,38.59
2018-06-30T14:04:28.288Z,38.41
2018-06-30T14:06:57.758Z,38.94
2018-06-30T14:09:27.070Z,38.83
2018-06-30T14:11:56.375Z,37.47
2018-06-30T14:14:25.690Z,36.62
2018-06-30T14:16:55.237Z,36.90
2018-06-30T14:19:24.428Z,36.90
2018-06-30T14:21:53.867Z,36.36
2018-06-30T14:24:23.441Z,36.67
2018-06-30T14:26:53.416Z,36.02
2018-06-30T14:29:22.747Z,35.46
2018-06-30T14:31:52.267Z,35.19
2018-06-30T14:34:21.685Z,34.39
2018-06-30T14:36:50.972Z,34.54
2018-06-30T14:39:20.156Z,35.01
2018-06-30T14:41:49.404Z,34.19
2018-06-30T14:44:27.667Z,33.19
2018-06-30T14:46:58.064Z,33.65
2018-06-30T14:49:27.431Z,33.62
2018-06-30T14:51:56.710Z,33.32
2018-06-30T14:54:26.035Z,32.99
2018-06-30T14:56:55.267Z,33.03
2018-06-30T14:59:24.777Z,33.63
2018-06-30T15:01:54.078Z,33.05
2018-06-30T15:04:23.423Z,32.77
2018-06-30T15:06:52.668Z,31.70
2018-06-30T15:09:23.889Z,32.28
2018-06-30T15:11:53.188Z,32.54
2018-06-30T15:14:22.472Z,32.11
2018-06-30T15:16:51.743Z,31.76
2018-06-30T15:19:21.015Z,31.41
2018-06-30T15:21:50.227Z,31.73
2018-06-30T15:24:19.407Z,31.95
2018-06-30T15:26:48.605Z,32.02
2018-06-30T15:29:17.815Z,30.95
2018-06-30T15:31:47.015Z,31.07
2018-06-30T15:34:16.215Z,31.52
2018-06-30T15:36:45.527Z,31.24
2018-06-30T15:39:14.816Z,31.35
2018-06-30T15:41:44.303Z,31.70
2018-06-30T15:44:14.291Z,31.59
2018-06-30T15:49:17.511Z,30.72
2018-06-30T15:51:47.176Z,30.74
2018-06-30T15:54:16.586Z,30.89
2018-06-30T15:56:46.283Z,30.58
2018-06-30T15:59:15.683Z,30.77
2018-06-30T16:01:44.911Z,30.62
2018-06-30T16:04:14.199Z,30.32
2018-06-30T16:06:43.431Z,30.19
2018-06-30T16:09:12.683Z,30.11
2018-06-30T16:11:43.096Z,30.07
2018-06-30T16:14:12.591Z,30.32
2018-06-30T16:16:42.868Z,30.29
2018-06-30T16:19:12.052Z,29.61
2018-06-30T16:21:41.251Z,30.05
2018-06-30T16:24:10.424Z,30.12
2018-06-30T16:26:39.668Z,29.91
2018-06-30T16:29:15.970Z,29.57
2018-06-30T16:31:45.275Z,29.24
2018-06-30T16:34:14.444Z,29.36
2018-06-30T16:36:43.609Z,29.58
2018-06-30T16:39:13.263Z,29.50
2018-06-30T16:41:42.455Z,29.12
2018-06-30T16:44:12.147Z,29.37
2018-06-30T16:46:41.391Z,29.52
2018-06-30T16:49:10.628Z,29.10
2018-06-30T16:51:40.343Z,29.02
2018-06-30T16:54:09.535Z,29.01
2018-06-30T16:56:38.759Z,28.72
2018-06-30T16:59:07.925Z,28.49
2018-06-30T17:01:37.072Z,28.68
2018-06-30T17:04:06.275Z,28.50
2018-06-30T17:06:35.545Z,28.59
2018-06-30T17:09:09.228Z,28.45
2018-06-30T17:11:38.411Z,28.19
2018-06-30T17:14:08.366Z,28.04
2018-06-30T17:16:37.648Z,28.06
2018-06-30T17:19:07.607Z,27.70
2018-06-30T17:21:37.316Z,27.63
2018-06-30T17:24:06.626Z,27.51
2018-06-30T17:26:35.991Z,27.31
2018-06-30T17:29:05.443Z,27.23
2018-06-30T17:31:34.874Z,27.14
2018-06-30T17:34:04.270Z,27.11
2018-06-30T17:36:33.456Z,27.04
2018-06-30T17:39:03.770Z,26.91
2018-06-30T17:41:32.975Z,26.93
2018-06-30T17:44:02.495Z,26.83
2018-06-30T17:46:31.715Z,26.77
2018-06-30T17:49:01.056Z,26.82
2018-06-30T17:51:30.334Z,26.54
2018-06-30T17:53:59.551Z,26.71
2018-06-30T17:56:28.705Z,26.55
2018-06-30T17:58:58.029Z,26.52
2018-06-30T18:01:27.407Z,26.28
2018-06-30T18:03:56.592Z,26.25
2018-06-30T18:06:25.778Z,25.93
2018-06-30T18:08:54.964Z,25.91
2018-06-30T18:11:24.631Z,25.67
2018-06-30T18:13:53.859Z,25.60
2018-06-30T18:16:23.032Z,25.67
2018-06-30T18:18:52.322Z,25.52
2018-06-30T18:21:21.531Z,25.37
2018-06-30T18:23:50.807Z,25.47
2018-06-30T18:26:20.091Z,25.33
2018-06-30T18:28:49.259Z,25.32
2018-06-30T18:31:18.446Z,25.14
2018-06-30T18:33:47.605Z,25.11
2018-06-30T18:36:16.963Z,25.02
2018-06-30T18:38:46.446Z,24.92
2018-06-30T18:41:15.932Z,24.95
2018-06-30T18:43:45.213Z,24.63
2018-06-30T18:46:14.379Z,24.63
2018-06-30T18:48:43.563Z,24.51
2018-06-30T18:51:12.899Z,24.27
2018-06-30T18:53:42.667Z,24.22
2018-06-30T18:56:11.852Z,24.08
2018-06-30T18:58:41.018Z,23.93
2018-06-30T19:01:10.203Z,23.87
2018-06-30T19:03:39.407Z,23.84
2018-06-30T19:06:08.586Z,23.76
2018-06-30T19:08:37.761Z,23.72
2018-06-30T19:11:07.362Z,23.48
2018-06-30T19:13:36.543Z,23.35
2018-06-30T19:16:05.782Z,23.36
2018-06-30T19:18:34.984Z,23.29
2018-06-30T19:21:04.343Z,23.13
2018-06-30T19:23:33.539Z,23.00
2018-06-30T19:26:02.815Z,22.98
2018-06-30T19:28:32.404Z,22.97
2018-06-30T19:31:01.577Z,22.86
2018-06-30T19:33:30.939Z,22.69
2018-06-30T19:36:00.091Z,22.65
2018-06-30T19:38:29.311Z,22.56
2018-06-30T19:40:58.475Z,22.52
2018-06-30T19:43:27.614Z,22.45
2018-06-30T19:45:56.799Z,22.31
2018-06-30T19:48:25.958Z,22.17
2018-06-30T19:50:55.155Z,22.14
2018-06-30T19:53:24.336Z,22.09
2018-06-30T19:55:53.635Z,22.08
2018-06-30T19:58:22.847Z,22.00
2018-06-30T20:00:52.072Z,21.99
2018-06-30T20:03:21.400Z,21.95
2018-06-30T20:05:50.571Z,21.88
2018-06-30T20:08:19.751Z,21.85
2018-06-30T20:10:48.975Z,21.76
2018-06-30T20:13:18.275Z,21.69
2018-06-30T20:15:47.432Z,21.60
2018-06-30T20:18:17.044Z,21.52
2018-06-30T20:20:46.416Z,21.52
2018-06-30T20:23:15.863Z,21.43
2018-06-30T20:25:45.167Z,21.56
2018-06-30T20:28:14.419Z,21.44
2018-06-30T20:30:43.991Z,21.26
2018-06-30T20:33:13.205Z,21.26
2018-06-30T20:35:42.367Z,21.27
2018-06-30T20:38:11.584Z,21.21
2018-06-30T20:40:44.735Z,21.13
2018-06-30T20:43:15.231Z,21.07
2018-06-30T20:45:47.644Z,21.01
2018-06-30T20:48:18.685Z,20.97
2018-06-30T20:50:50.864Z,20.80
2018-06-30T20:53:21.302Z,20.80
2018-06-30T20:55:50.983Z,20.72
2018-06-30T20:58:22.806Z,20.68
2018-06-30T21:00:53.090Z,20.69
2018-06-30T21:03:23.969Z,20.56
2018-06-30T21:05:54.162Z,20.45
2018-06-30T21:08:26.170Z,20.45
2018-06-30T21:10:56.266Z,20.38
2018-06-30T21:13:26.761Z,20.41
2018-06-30T21:15:57.733Z,20.24
2018-06-30T21:18:29.271Z,20.19
2018-06-30T21:20:59.551Z,20.22
2018-06-30T21:23:35.191Z,20.09
2018-06-30T21:26:05.649Z,20.04
2018-06-30T21:28:37.517Z,19.92
2018-06-30T21:31:08.157Z,19.93
2018-06-30T21:33:37.673Z,19.80
2018-06-30T21:36:06.967Z,19.78
2018-06-30T21:38:37.347Z,19.72
2018-06-30T21:41:06.747Z,19.64
2018-06-30T21:43:35.959Z,19.64
2018-06-30T21:46:05.807Z,19.70
2018-06-30T21:48:36.704Z,19.55
2018-06-30T21:51:06.527Z,19.46
2018-06-30T21:53:36.598Z,19.37
2018-06-30T21:56:06.576Z,19.36
2018-06-30T21:58:36.627Z,19.31
2018-06-30T22:01:11.596Z,19.18
2018-06-30T22:03:42.017Z,19.12
2018-06-30T22:06:12.540Z,19.03
2018-06-30T22:08:44.081Z,18.95
2018-06-30T22:11:14.100Z,18.99
2018-06-30T22:13:45.250Z,19.01
2018-06-30T22:16:15.535Z,18.99
2018-06-30T22:18:46.872Z,18.84
2018-06-30T22:21:16.792Z,18.75
2018-06-30T22:23:50.471Z,18.70
2018-06-30T22:26:19.740Z,18.72
2018-06-30T22:28:49.552Z,18.66
2018-06-30T22:31:19.117Z,18.63
2018-06-30T22:33:48.275Z,18.55
2018-06-30T22:36:17.520Z,18.47
2018-06-30T22:38:46.723Z,18.43
2018-06-30T22:41:16.000Z,18.33
2018-06-30T22:43:45.194Z,18.27
2018-06-30T22:46:14.816Z,18.24
2018-06-30T22:48:44.682Z,18.23
2018-06-30T22:51:13.860Z,18.11
2018-06-30T22:53:43.040Z,18.10
2018-06-30T22:56:12.214Z,18.07
2018-06-30T22:58:41.359Z,18.04
2018-06-30T23:01:10.528Z,17.96
2018-06-30T23:03:39.747Z,17.93
2018-06-30T23:06:08.948Z,17.80
2018-06-30T23:08:43.871Z,17.78
2018-06-30T23:11:13.287Z,17.78
2018-06-30T23:13:42.495Z,17.70
2018-06-30T23:16:11.985Z,17.67
2018-06-30T23:18:42.711Z,17.68
2018-06-30T23:21:11.871Z,17.61
2018-06-30T23:23:41.045Z,17.56
2018-06-30T23:26:10.407Z,17.56
2018-06-30T23:28:39.571Z,17.53
2018-06-30T23:31:08.815Z,17.50
2018-06-30T23:33:38.664Z,17.42
2018-06-30T23:36:08.370Z,17.34
2018-06-30T23:38:37.846Z,17.36
2018-06-30T23:41:07.329Z,17.33
2018-06-30T23:43:36.747Z,17.26
2018-06-30T23:46:05.939Z,17.20
2018-06-30T23:48:35.380Z,17.16
2018-06-30T23:51:04.551Z,17.10
2018-06-30T23:53:33.796Z,17.11
2018-06-30T23:56:03.007Z,17.02
2018-06-30T23:58:32.318Z,16.95
